Time;durP1;ratioP1;P1;durP2;ratioP2;P2;SDS_P1;SDS_P2;PMS_P1;PMS_P2;Temp;Humidity;BMP_temperature;BMP_pressure;BME280_temperature;BME280_humidity;BME280_pressure;Samples;Min_cycle;Max_cycle;Signal;HPM_P1;HPM_P2
2021/04/09 00:01:05;;;;;;;3.70;3.25;;;6.90;85.40;;;;;;5033458;28;20227;-68
2021/04/09 00:03:33;;;;;;;5.40;3.92;;;6.80;85.30;;;;;;5029738;28;20562;-69
2021/04/09 00:06:00;;;;;;;4.25;3.90;;;6.80;85.30;;;;;;5034661;28;20220;-68
2021/04/09 00:08:26;;;;;;;4.15;3.40;;;6.80;85.80;;;;;;5059050;22;20215;-75
2021/04/09 00:10:53;;;;;;;3.85;3.63;;;6.70;85.80;;;;;;5043466;28;20435;-73
2021/04/09 00:13:20;;;;;;;6.03;4.75;;;6.70;85.80;;;;;;5046909;28;20195;-75
2021/04/09 00:15:46;;;;;;;4.40;4.10;;;6.70;86.60;;;;;;5047660;28;20218;-75
2021/04/09 00:18:13;;;;;;;4.88;4.43;;;6.60;86.30;;;;;;5051476;28;20214;-75
2021/04/09 00:20:41;;;;;;;4.35;4.05;;;6.50;86.40;;;;;;5028718;28;20250;-75
2021/04/09 00:23:07;;;;;;;4.30;4.00;;;6.40;86.30;;;;;;5032380;28;20653;-75
2021/04/09 00:25:34;;;;;;;3.95;3.65;;;6.40;86.20;;;;;;5027643;28;20694;-75
2021/04/09 00:28:00;;;;;;;4.43;3.85;;;6.40;86.40;;;;;;5030161;28;20202;-75
2021/04/09 00:30:28;;;;;;;3.25;3.05;;;6.40;86.60;;;;;;5027158;28;20231;-75
2021/04/09 00:32:55;;;;;;;4.75;4.35;;;6.40;86.60;;;;;;5031333;28;20187;-75
2021/04/09 00:35:22;;;;;;;4.13;3.75;;;6.40;86.40;;;;;;5027971;28;20228;-75
2021/04/09 00:37:51;;;;;;;4.47;4.18;;;6.40;86.10;;;;;;5034147;28;20199;-74
2021/04/09 00:40:18;;;;;;;4.15;3.85;;;6.40;86.30;;;;;;5028903;28;20238;-75
2021/04/09 00:42:45;;;;;;;3.50;3.30;;;6.30;86.50;;;;;;5029933;28;20212;-75
2021/04/09 00:45:14;;;;;;;3.75;3.38;;;6.30;86.50;;;;;;5028517;28;20203;-75
2021/04/09 00:47:41;;;;;;;3.67;3.38;;;6.30;86.60;;;;;;5027074;28;20625;-75
2021/04/09 00:50:08;;;;;;;4.82;4.43;;;6.30;86.90;;;;;;5029236;28;20220;-73
2021/04/09 00:52:37;;;;;;;4.20;3.90;;;6.20;87.70;;;;;;5030862;28;20222;-74
2021/04/09 00:55:05;;;;;;;3.80;3.53;;;6.20;87.00;;;;;;5029854;28;20203;-76
2021/04/09 00:57:33;;;;;;;4.15;3.85;;;6.20;86.80;;;;;;5033419;28;20558;-75
2021/04/09 01:00:02;;;;;;;3.33;3.13;;;6.20;87.20;;;;;;5029300;28;20222;-75
2021/04/09 01:02:28;;;;;;;4.43;4.03;;;6.10;87.40;;;;;;5026548;28;20248;-75
2021/04/09 01:04:55;;;;;;;4.15;3.83;;;6.10;87.50;;;;;;5030157;28;20191;-74
2021/04/09 01:07:24;;;;;;;4.07;3.78;;;6.00;87.80;;;;;;5025844;28;20774;-74
2021/04/09 01:09:50;;;;;;;4.35;4.00;;;5.90;87.80;;;;;;5024983;28;20230;-75
2021/04/09 01:12:18;;;;;;;3.28;3.08;;;5.90;87.80;;;;;;5028054;28;20216;-74
2021/04/09 01:14:45;;;;;;;4.07;3.75;;;5.90;87.90;;;;;;5028535;28;20234;-74
2021/04/09 01:17:25;;;;;;;4.40;4.00;;;5.90;88.40;;;;;;5025302;28;20226;-75
2021/04/09 01:20:25;;;;;;;3.70;3.50;;;5.80;88.70;;;;;;5027153;28;20222;-75
2021/04/09 01:23:01;;;;;;;3.83;3.53;;;5.80;88.40;;;;;;5024059;28;20239;-75
2021/04/09 01:26:05;;;;;;;4.72;4.32;;;5.70;88.60;;;;;;5027959;28;20196;-75
2021/04/09 01:28:50;;;;;;;4.88;4.40;;;5.70;89.30;;;;;;5023872;28;20223;-75
2021/04/09 01:31:39;;;;;;;3.67;3.38;;;5.70;88.80;;;;;;5027273;28;20199;-75
2021/04/09 01:34:07;;;;;;;4.45;4.15;;;5.70;88.80;;;;;;5022178;28;20227;-74
2021/04/09 01:36:39;;;;;;;4.15;3.75;;;5.70;88.80;;;;;;5022957;28;20203;-75
2021/04/09 01:39:11;;;;;;;4.63;4.07;;;5.70;88.80;;;;;;5027557;28;20239;-74
2021/04/09 01:41:39;;;;;;;5.70;3.83;;;5.60;88.80;;;;;;5024694;28;20192;-75
2021/04/09 01:44:08;;;;;;;4.20;3.90;;;5.60;89.20;;;;;;5023769;28;20223;-74
2021/04/09 01:46:39;;;;;;;4.68;4.38;;;5.60;89.20;;;;;;5026711;28;20204;-75
2021/04/09 01:49:08;;;;;;;3.78;3.55;;;5.60;89.30;;;;;;5028182;28;20238;-75
2021/04/09 01:51:36;;;;;;;4.15;3.85;;;5.50;89.00;;;;;;5026421;28;20537;-75
2021/04/09 01:54:04;;;;;;;4.38;3.97;;;5.50;89.20;;;;;;5026660;28;20403;-75
2021/04/09 01:56:33;;;;;;;4.70;4.30;;;5.50;89.40;;;;;;5026957;28;20195;-75
2021/04/09 01:59:00;;;;;;;4.30;4.00;;;5.40;89.70;;;;;;5030328;28;20273;-74
2021/04/09 02:01:28;;;;;;;4.53;4.20;;;5.40;89.90;;;;;;5022867;28;20203;-74
2021/04/09 02:03:56;;;;;;;5.85;4.82;;;5.40;89.80;;;;;;5028389;28;20215;-75
2021/04/09 02:06:23;;;;;;;4.50;4.20;;;5.30;90.00;;;;;;5023898;28;20192;-75
2021/04/09 02:08:50;;;;;;;4.43;4.10;;;5.30;89.90;;;;;;5025962;28;20223;-74
2021/04/09 02:11:17;;;;;;;3.97;3.72;;;5.30;90.00;;;;;;5028194;28;20210;-75
2021/04/09 02:13:46;;;;;;;4.20;3.97;;;5.30;89.90;;;;;;5026191;28;20219;-75
2021/04/09 02:16:12;;;;;;;3.53;3.33;;;5.30;89.80;;;;;;5027380;28;20227;-75
2021/04/09 02:18:39;;;;;;;4.07;3.85;;;5.30;89.70;;;;;;5028589;28;20238;-74
2021/04/09 02:21:07;;;;;;;4.28;3.97;;;5.30;89.80;;;;;;5025802;28;20219;-75
2021/04/09 02:23:34;;;;;;;4.05;3.67;;;5.30;89.80;;;;;;5029255;28;20280;-75
2021/04/09 02:26:01;;;;;;;5.13;4.72;;;5.30;90.10;;;;;;5027153;28;20195;-75
2021/04/09 02:28:28;;;;;;;4.78;4.38;;;5.20;90.40;;;;;;5026540;28;20223;-75
2021/04/09 02:31:05;;;;;;;4.60;4.25;;;5.10;90.60;;;;;;5029310;28;20203;-75
2021/04/09 02:33:33;;;;;;;4.65;4.25;;;5.00;90.60;;;;;;5021774;28;20264;-75
2021/04/09 02:36:00;;;;;;;5.35;4.00;;;4.90;90.70;;;;;;5028661;28;20195;-75
2021/04/09 02:38:29;;;;;;;4.95;4.55;;;4.90;90.70;;;;;;5027865;28;20227;-74
2021/04/09 02:41:00;;;;;;;3.70;3.50;;;4.90;90.60;;;;;;5025944;28;20207;-75
2021/04/09 02:43:27;;;;;;;4.50;4.20;;;4.90;90.50;;;;;;5022995;28;21149;-74
2021/04/09 02:45:55;;;;;;;4.72;4.43;;;4.90;90.40;;;;;;5028803;28;20253;-75
2021/04/09 02:48:24;;;;;;;4.32;3.92;;;4.90;90.30;;;;;;5028188;28;20243;-75
2021/04/09 02:50:51;;;;;;;4.05;3.80;;;4.90;90.30;;;;;;5029548;28;20200;-75
2021/04/09 02:53:20;;;;;;;4.10;3.80;;;4.90;90.40;;;;;;5025094;28;20724;-75
2021/04/09 02:55:49;;;;;;;4.18;3.88;;;4.90;90.40;;;;;;5026438;28;20210;-75
2021/04/09 02:58:16;;;;;;;4.35;3.88;;;4.90;90.60;;;;;;5025101;28;20227;-75
2021/04/09 03:00:45;;;;;;;4.53;4.20;;;4.90;90.40;;;;;;5027101;28;20208;-75
2021/04/09 03:03:12;;;;;;;4.80;4.40;;;5.00;90.30;;;;;;5029998;28;20815;-75
2021/04/09 03:05:40;;;;;;;4.00;3.70;;;4.90;90.30;;;;;;5024111;28;20203;-75
2021/04/09 03:08:07;;;;;;;4.25;4.05;;;5.00;90.30;;;;;;5022972;28;20270;-74
2021/04/09 03:10:34;;;;;;;4.28;3.97;;;4.90;90.30;;;;;;5030264;28;20199;-75
2021/04/09 03:13:03;;;;;;;4.32;3.75;;;4.90;90.30;;;;;;5024037;28;20771;-75
2021/04/09 03:15:34;;;;;;;4.78;4.47;;;4.90;90.30;;;;;;5024229;28;20669;-75
2021/04/09 03:18:04;;;;;;;4.10;3.72;;;4.90;90.30;;;;;;5024114;28;20660;-75
2021/04/09 03:20:31;;;;;;;4.38;4.00;;;4.90;90.40;;;;;;5027165;28;20655;-74
2021/04/09 03:22:58;;;;;;;4.47;4.18;;;4.90;90.40;;;;;;5025627;28;20223;-74
2021/04/09 03:25:25;;;;;;;4.10;3.80;;;4.90;90.40;;;;;;5026260;28;20214;-75
2021/04/09 03:27:51;;;;;;;4.18;3.88;;;4.90;90.40;;;;;;5026116;28;20243;-76
2021/04/09 03:30:21;;;;;;;4.35;4.03;;;4.90;90.40;;;;;;5025827;28;20227;-73
2021/04/09 03:32:48;;;;;;;4.18;3.88;;;4.80;90.30;;;;;;5027249;28;20218;-74
2021/04/09 03:35:16;;;;;;;5.35;4.45;;;4.80;90.30;;;;;;5025831;28;20640;-73
2021/04/09 03:37:43;;;;;;;5.25;4.78;;;4.80;90.50;;;;;;5030766;28;20282;-75
2021/04/09 03:40:10;;;;;;;4.60;4.30;;;4.80;90.50;;;;;;5029391;28;20223;-75
2021/04/09 03:42:37;;;;;;;4.65;4.35;;;4.70;90.40;;;;;;5030640;28;20249;-75
2021/04/09 03:45:05;;;;;;;3.97;3.67;;;4.70;90.40;;;;;;5028739;28;20211;-75
2021/04/09 03:47:33;;;;;;;4.20;3.85;;;4.70;90.40;;;;;;5029369;28;20227;-75
2021/04/09 03:49:59;;;;;;;3.88;3.67;;;4.70;90.40;;;;;;5031785;28;20227;-75
2021/04/09 03:52:26;;;;;;;4.47;4.18;;;4.60;90.40;;;;;;5029562;28;20231;-74
2021/04/09 03:54:53;;;;;;;4.40;4.00;;;4.60;90.50;;;;;;5027497;28;20199;-74
2021/04/09 03:57:19;;;;;;;4.50;4.10;;;4.60;90.60;;;;;;5028866;28;20199;-75
2021/04/09 03:59:46;;;;;;;4.90;4.40;;;4.60;90.50;;;;;;5031005;28;20277;-75
2021/04/09 04:02:12;;;;;;;3.95;3.65;;;4.50;90.70;;;;;;5026090;28;20219;-75
2021/04/09 04:04:40;;;;;;;3.80;3.60;;;4.50;90.70;;;;;;5029481;28;20653;-75
2021/04/09 04:07:07;;;;;;;4.18;3.80;;;4.50;91.00;;;;;;5023864;28;20544;-75
2021/04/09 04:09:33;;;;;;;4.30;4.00;;;4.40;90.70;;;;;;5030083;28;20224;-75
2021/04/09 04:12:00;;;;;;;4.45;4.15;;;4.40;90.70;;;;;;5028046;28;20196;-75
2021/04/09 04:14:27;;;;;;;4.78;4.45;;;4.40;90.90;;;;;;5027913;28;20274;-75
2021/04/09 04:16:54;;;;;;;4.10;3.80;;;4.40;90.90;;;;;;5031208;28;20199;-75
2021/04/09 04:19:21;;;;;;;4.30;4.00;;;4.40;90.90;;;;;;5028475;28;20224;-75
2021/04/09 04:21:50;;;;;;;4.25;3.95;;;4.40;90.90;;;;;;5027168;28;20253;-75
2021/04/09 04:24:17;;;;;;;4.40;4.10;;;4.30;90.90;;;;;;5025903;28;20215;-75
2021/04/09 04:26:43;;;;;;;4.63;4.32;;;4.30;91.00;;;;;;5031444;28;20194;-75
2021/04/09 04:29:10;;;;;;;3.65;3.45;;;4.30;91.00;;;;;;5028382;28;20223;-75
2021/04/09 04:31:36;;;;;;;3.85;3.55;;;4.40;91.00;;;;;;5031238;28;20573;-75
2021/04/09 04:34:03;;;;;;;4.55;4.25;;;4.30;90.90;;;;;;5026337;28;20599;-75
2021/04/09 04:36:29;;;;;;;4.60;4.20;;;4.30;90.90;;;;;;5029906;28;20210;-73
2021/04/09 04:38:57;;;;;;;4.10;3.80;;;4.30;90.80;;;;;;5028990;28;20239;-75
2021/04/09 04:41:23;;;;;;;3.72;3.50;;;4.30;90.90;;;;;;5028854;28;20204;-74
2021/04/09 04:43:50;;;;;;;4.47;4.18;;;4.30;90.90;;;;;;5026328;28;20234;-76
2021/04/09 04:46:16;;;;;;;4.15;3.85;;;4.30;90.90;;;;;;5026590;28;20203;-76
2021/04/09 04:48:43;;;;;;;4.53;4.13;;;4.30;91.00;;;;;;5027142;28;20610;-74
2021/04/09 04:51:10;;;;;;;4.35;4.05;;;4.30;90.90;;;;;;5027268;28;20211;-75
2021/04/09 04:53:36;;;;;;;4.30;4.00;;;4.30;90.90;;;;;;5027387;28;20212;-76
2021/04/09 04:56:04;;;;;;;4.47;4.18;;;4.30;91.00;;;;;;5030031;28;20200;-75
2021/04/09 04:58:31;;;;;;;4.10;3.80;;;4.30;91.10;;;;;;5026336;28;20231;-73
2021/04/09 05:00:57;;;;;;;4.38;4.07;;;4.20;91.20;;;;;;5024972;28;20203;-74
2021/04/09 05:03:24;;;;;;;4.40;4.10;;;4.20;91.30;;;;;;5029053;28;20219;-75
2021/04/09 05:05:51;;;;;;;4.25;3.95;;;4.20;91.30;;;;;;5027090;28;20673;-75
2021/04/09 05:08:17;;;;;;;6.55;5.93;;;4.20;91.20;;;;;;5026785;28;20647;-75
2021/04/09 05:10:44;;;;;;;4.95;4.50;;;4.20;91.30;;;;;;5029884;28;20209;-74
2021/04/09 05:13:11;;;;;;;4.25;3.95;;;4.20;91.30;;;;;;5021578;28;20219;-74
2021/04/09 05:15:38;;;;;;;6.85;4.60;;;4.30;91.50;;;;;;5025976;28;20204;-75
2021/04/09 05:18:05;;;;;;;4.43;4.13;;;4.30;91.50;;;;;;5025357;28;20227;-75
2021/04/09 05:20:31;;;;;;;4.88;4.53;;;4.40;91.50;;;;;;5021943;28;20222;-75
2021/04/09 05:22:58;;;;;;;4.40;4.10;;;4.60;91.60;;;;;;5024843;28;20234;-75
2021/04/09 05:25:25;;;;;;;6.28;4.45;;;4.70;91.50;;;;;;5026029;28;20204;-75
2021/04/09 05:27:51;;;;;;;4.47;4.18;;;4.90;91.40;;;;;;5024795;28;20628;-74
2021/04/09 05:30:20;;;;;;;4.63;4.30;;;5.10;91.00;;;;;;5025981;28;20686;-74
2021/04/09 05:32:47;;;;;;;4.78;4.47;;;5.40;90.80;;;;;;5027343;28;20227;-74
2021/04/09 05:35:15;;;;;;;4.95;4.55;;;5.60;90.80;;;;;;5021952;28;20215;-74
2021/04/09 05:37:42;;;;;;;4.63;4.22;;;5.80;90.40;;;;;;5021852;28;20196;-75
2021/04/09 05:40:09;;;;;;;4.40;4.00;;;6.10;90.30;;;;;;5024289;28;20220;-75
2021/04/09 05:42:36;;;;;;;5.72;4.43;;;6.40;90.70;;;;;;5024222;28;20218;-74
2021/04/09 05:45:04;;;;;;;5.70;4.65;;;6.70;89.70;;;;;;5020292;28;20199;-75
2021/04/09 05:47:31;;;;;;;5.38;4.88;;;6.80;89.90;;;;;;5022346;28;20656;-75
2021/04/09 05:49:58;;;;;;;4.45;4.13;;;7.00;88.90;;;;;;5017449;28;20341;-75
2021/04/09 05:52:24;;;;;;;4.90;4.50;;;7.20;88.30;;;;;;5020140;28;20199;-75
2021/04/09 05:54:51;;;;;;;4.97;4.57;;;7.40;87.80;;;;;;5017212;28;20278;-75
2021/04/09 05:57:17;;;;;;;5.10;4.28;;;7.40;87.00;;;;;;5015265;28;20196;-74
2021/04/09 05:59:45;;;;;;;5.78;5.18;;;7.60;87.50;;;;;;5018739;28;20227;-75
2021/04/09 06:02:12;;;;;;;5.57;4.68;;;7.70;87.80;;;;;;5020205;28;20705;-77
2021/04/09 06:04:41;;;;;;;5.20;4.55;;;7.70;86.50;;;;;;5015688;28;20269;-75
2021/04/09 06:07:08;;;;;;;4.63;4.25;;;7.90;86.30;;;;;;5019320;28;20202;-78
2021/04/09 06:09:34;;;;;;;5.32;4.85;;;8.20;85.70;;;;;;5074828;22;20696;-68
2021/04/09 06:12:01;;;;;;;12.32;6.28;;;8.50;85.70;;;;;;5027929;28;20198;-69
2021/04/09 06:14:28;;;;;;;8.82;6.90;;;8.60;88.90;;;;;;5048612;28;20218;-69
2021/04/09 06:16:55;;;;;;;6.05;5.53;;;8.50;90.20;;;;;;5053188;28;20194;-69
2021/04/09 06:19:21;;;;;;;5.88;5.38;;;8.50;89.70;;;;;;5056602;28;20229;-72
2021/04/09 06:21:49;;;;;;;5.38;4.88;;;8.50;88.50;;;;;;5056598;28;20220;-69
2021/04/09 06:24:15;;;;;;;5.93;5.43;;;8.70;87.60;;;;;;5053442;28;20229;-70
2021/04/09 06:26:42;;;;;;;6.05;5.45;;;8.80;87.70;;;;;;5055372;28;20194;-70
2021/04/09 06:29:08;;;;;;;6.60;5.00;;;8.90;87.40;;;;;;5053228;28;20407;-70
2021/04/09 06:31:35;;;;;;;6.40;5.68;;;8.90;86.80;;;;;;5053889;28;20688;-70
2021/04/09 06:34:02;;;;;;;7.47;5.97;;;8.90;87.50;;;;;;5053255;28;20893;-71
2021/04/09 06:36:28;;;;;;;7.50;5.90;;;9.00;87.40;;;;;;5057985;28;20194;-71
2021/04/09 06:38:56;;;;;;;7.15;5.13;;;9.00;87.90;;;;;;5059047;28;20716;-70
2021/04/09 06:41:22;;;;;;;5.75;4.55;;;9.30;86.90;;;;;;5057719;28;20572;-71
2021/04/09 06:43:49;;;;;;;5.55;5.05;;;9.60;85.10;;;;;;5058829;28;20234;-70
2021/04/09 06:46:16;;;;;;;7.07;4.75;;;9.70;84.60;;;;;;5059073;28;20590;-71
2021/04/09 06:48:43;;;;;;;7.10;5.38;;;9.70;84.90;;;;;;5050901;28;20222;-69
2021/04/09 06:51:11;;;;;;;6.10;5.50;;;9.80;85.80;;;;;;5054335;28;20926;-70
2021/04/09 06:53:43;;;;;;;6.93;5.43;;;9.80;85.00;;;;;;5055801;28;20914;-73
2021/04/09 06:56:11;;;;;;;6.20;5.60;;;9.90;85.10;;;;;;5059157;28;20206;-72
2021/04/09 06:58:38;;;;;;;6.25;5.28;;;10.00;87.10;;;;;;5054806;28;20218;-71
2021/04/09 07:01:06;;;;;;;8.63;5.95;;;10.00;86.50;;;;;;5056368;28;20263;-70
2021/04/09 07:03:33;;;;;;;6.00;5.38;;;9.90;87.30;;;;;;5059461;28;20222;-72
2021/04/09 07:05:59;;;;;;;9.70;7.20;;;9.90;87.40;;;;;;5054000;28;20729;-72
2021/04/09 07:08:27;;;;;;;15.75;6.80;;;9.80;89.50;;;;;;5061316;28;20226;-68
2021/04/09 07:10:53;;;;;;;9.27;7.82;;;9.80;90.30;;;;;;5061920;28;20222;-70
2021/04/09 07:13:21;;;;;;;11.20;8.95;;;9.80;91.00;;;;;;5057919;28;20607;-71
2021/04/09 07:15:48;;;;;;;11.73;7.10;;;9.80;90.40;;;;;;5059006;28;20202;-72
2021/04/09 07:18:17;;;;;;;11.48;7.43;;;10.00;90.00;;;;;;5063664;28;20222;-69
2021/04/09 07:20:45;;;;;;;10.23;7.07;;;10.10;89.40;;;;;;5061703;28;20241;-70
2021/04/09 07:23:13;;;;;;;12.45;7.88;;;10.10;88.40;;;;;;5061377;28;20223;-71
2021/04/09 07:25:41;;;;;;;10.45;7.25;;;10.20;88.20;;;;;;5065279;28;20233;-67
2021/04/09 07:28:14;;;;;;;10.07;7.63;;;10.20;89.00;;;;;;5063653;28;20829;-69
2021/04/09 07:30:43;;;;;;;8.73;6.60;;;10.30;87.80;;;;;;5066610;28;20218;-69
2021/04/09 07:33:16;;;;;;;9.35;7.32;;;10.40;87.60;;;;;;5063074;28;21037;-68
2021/04/09 07:35:44;;;;;;;8.02;6.95;;;10.40;89.90;;;;;;5061027;28;20195;-69
2021/04/09 07:38:19;;;;;;;9.68;6.85;;;10.50;89.10;;;;;;5067315;28;20217;-69
2021/04/09 07:40:55;;;;;;;6.28;5.65;;;10.60;87.70;;;;;;5065657;28;20282;-70
2021/04/09 07:43:23;;;;;;;7.65;6.38;;;10.70;86.00;;;;;;5061067;28;20312;-69
2021/04/09 07:45:54;;;;;;;6.53;5.35;;;10.80;86.10;;;;;;5064295;28;20202;-70
2021/04/09 07:48:28;;;;;;;6.70;5.03;;;10.90;85.00;;;;;;5061698;28;20651;-70
2021/04/09 07:50:56;;;;;;;5.25;4.75;;;11.00;84.70;;;;;;5059440;28;20214;-71
2021/04/09 07:53:41;;;;;;;5.15;4.70;;;11.10;83.30;;;;;;5056824;28;20225;-71
2021/04/09 07:56:09;;;;;;;5.60;4.72;;;11.30;82.10;;;;;;5060959;28;20576;-74
2021/04/09 07:58:36;;;;;;;6.20;4.40;;;11.60;80.70;;;;;;5062492;28;20214;-72
2021/04/09 08:01:04;;;;;;;5.00;4.60;;;11.50;80.40;;;;;;5060789;28;20645;-71
2021/04/09 08:03:33;;;;;;;6.00;5.10;;;11.70;79.20;;;;;;5059967;28;20228;-72
2021/04/09 08:06:08;;;;;;;4.50;4.20;;;11.90;78.50;;;;;;5059288;28;20199;-74
2021/04/09 08:08:35;;;;;;;5.10;4.65;;;12.00;77.90;;;;;;5056347;28;20236;-73
2021/04/09 08:11:22;;;;;;;4.75;4.28;;;11.90;78.70;;;;;;5060038;28;20203;-72
2021/04/09 08:14:14;;;;;;;5.05;4.55;;;11.90;77.60;;;;;;5061039;28;20213;-71
2021/04/09 08:16:44;;;;;;;6.10;4.75;;;11.70;77.20;;;;;;5041952;28;20687;-70
2021/04/09 08:19:12;;;;;;;7.43;4.90;;;11.90;77.70;;;;;;5055738;28;20284;-71
2021/04/09 08:21:40;;;;;;;5.40;4.90;;;11.90;77.80;;;;;;5061983;28;20673;-70
2021/04/09 08:24:09;;;;;;;4.70;4.30;;;12.10;77.40;;;;;;5063773;28;20244;-70
2021/04/09 08:26:36;;;;;;;6.57;4.88;;;12.20;77.10;;;;;;5055541;28;20210;-70
2021/04/09 08:29:06;;;;;;;5.35;4.75;;;12.40;76.10;;;;;;5057952;28;20696;-70
2021/04/09 08:31:33;;;;;;;4.60;4.20;;;12.70;75.40;;;;;;5063134;28;20194;-73
2021/04/09 08:34:02;;;;;;;5.22;4.82;;;12.80;75.00;;;;;;5059966;28;20268;-71
2021/04/09 08:36:29;;;;;;;6.13;4.40;;;13.10;75.00;;;;;;5065258;28;20198;-75
2021/04/09 08:38:56;;;;;;;6.70;4.88;;;13.10;74.20;;;;;;5062570;28;20738;-73
2021/04/09 08:41:23;;;;;;;6.95;5.00;;;13.20;74.50;;;;;;5061346;28;20533;-72
2021/04/09 08:43:50;;;;;;;5.00;4.50;;;13.10;75.80;;;;;;5058632;28;20397;-70
2021/04/09 08:46:17;;;;;;;6.15;4.90;;;13.00;75.40;;;;;;5059120;28;20191;-71
2021/04/09 08:48:44;;;;;;;7.63;5.53;;;13.00;75.40;;;;;;5061682;28;20707;-71
2021/04/09 08:51:13;;;;;;;5.78;5.03;;;12.90;75.60;;;;;;5061534;28;20207;-70
2021/04/09 08:53:39;;;;;;;5.90;5.32;;;13.10;75.10;;;;;;5056899;28;20744;-71
2021/04/09 08:56:06;;;;;;;7.60;4.93;;;13.10;75.00;;;;;;5057546;28;20264;-70
2021/04/09 08:58:45;;;;;;;8.15;5.15;;;13.40;74.80;;;;;;5060368;28;20696;-70
2021/04/09 09:01:13;;;;;;;7.03;4.95;;;13.40;73.70;;;;;;5056353;28;20214;-70
2021/04/09 09:03:40;;;;;;;8.68;4.93;;;13.50;75.30;;;;;;5062784;28;20253;-70
2021/04/09 09:06:07;;;;;;;6.78;5.45;;;13.60;74.40;;;;;;5059488;28;20623;-70
2021/04/09 09:08:59;;;;;;;8.57;5.53;;;13.70;74.40;;;;;;5060420;28;20699;-71
2021/04/09 09:11:49;;;;;;;7.20;5.47;;;13.70;74.00;;;;;;5058761;28;20230;-70
2021/04/09 09:14:39;;;;;;;8.20;5.65;;;14.00;74.50;;;;;;5059211;28;20214;-71
2021/04/09 09:17:39;;;;;;;6.00;5.40;;;14.10;73.00;;;;;;5059399;28;20557;-70
2021/04/09 09:20:18;;;;;;;6.13;5.30;;;14.20;73.90;;;;;;5056190;28;20244;-74
2021/04/09 09:23:11;;;;;;;6.85;5.32;;;14.20;74.10;;;;;;5062345;28;20219;-70
2021/04/09 09:25:42;;;;;;;10.02;5.97;;;14.30;72.90;;;;;;5061364;28;20214;-71
2021/04/09 09:28:17;;;;;;;8.45;5.45;;;14.40;73.10;;;;;;5065368;28;20649;-68
2021/04/09 09:30:54;;;;;;;6.45;5.25;;;14.40;72.80;;;;;;5060518;28;20226;-67
2021/04/09 09:33:26;;;;;;;5.82;5.28;;;14.50;73.30;;;;;;5059783;28;20676;-68
2021/04/09 09:36:01;;;;;;;9.63;5.78;;;14.80;73.80;;;;;;5060365;28;20194;-68
2021/04/09 09:38:51;;;;;;;6.22;5.63;;;14.90;73.50;;;;;;5062336;28;20218;-68
2021/04/09 09:41:36;;;;;;;5.97;5.38;;;14.70;73.50;;;;;;5061961;28;20209;-68
2021/04/09 09:44:23;;;;;;;7.38;6.45;;;14.50;74.50;;;;;;5060305;28;20696;-68
2021/04/09 09:46:54;;;;;;;7.00;6.40;;;14.50;75.20;;;;;;5059298;28;20259;-67
2021/04/09 09:49:22;;;;;;;6.60;5.25;;;14.50;75.30;;;;;;5056409;28;20226;-68
2021/04/09 09:51:48;;;;;;;9.38;5.80;;;14.70;75.00;;;;;;5062303;28;20225;-68
2021/04/09 09:54:27;;;;;;;6.65;6.05;;;14.80;75.00;;;;;;5061657;28;20746;-68
2021/04/09 09:56:55;;;;;;;6.45;5.10;;;14.70;75.20;;;;;;5062428;28;20652;-67
2021/04/09 09:59:25;;;;;;;8.98;6.35;;;14.80;75.60;;;;;;5064518;28;20226;-67
2021/04/09 10:01:55;;;;;;;6.43;5.82;;;14.80;76.60;;;;;;5064568;28;20547;-67
2021/04/09 10:04:23;;;;;;;6.68;5.60;;;15.00;76.20;;;;;;5061848;28;20222;-67
2021/04/09 10:06:52;;;;;;;7.35;6.28;;;15.20;76.30;;;;;;5060707;28;20529;-68
2021/04/09 10:09:29;;;;;;;6.85;5.60;;;15.20;75.70;;;;;;5058606;28;20226;-68
2021/04/09 10:11:58;;;;;;;6.25;5.65;;;14.90;76.80;;;;;;5057680;28;20747;-67
2021/04/09 10:14:28;;;;;;;8.25;6.75;;;14.50;77.90;;;;;;5053171;28;20223;-67
2021/04/09 10:16:56;;;;;;;8.57;6.70;;;14.50;78.50;;;;;;5058721;28;20944;-67
2021/04/09 10:19:22;;;;;;;6.97;6.25;;;14.60;79.10;;;;;;5060734;28;20237;-68
2021/04/09 10:21:49;;;;;;;7.93;5.75;;;14.60;78.50;;;;;;5063745;28;20694;-67
2021/04/09 10:24:17;;;;;;;9.32;6.07;;;14.70;79.00;;;;;;5060411;28;20215;-68
2021/04/09 10:26:49;;;;;;;8.65;6.38;;;14.90;78.70;;;;;;5059062;28;20726;-68
2021/04/09 10:29:22;;;;;;;6.68;6.07;;;15.10;78.70;;;;;;5056796;28;20223;-68
2021/04/09 10:31:49;;;;;;;6.63;6.00;;;15.20;77.60;;;;;;5059974;28;20201;-67
2021/04/09 10:34:19;;;;;;;8.13;5.47;;;15.10;78.60;;;;;;5060273;28;20228;-68
2021/04/09 10:36:46;;;;;;;7.85;5.68;;;15.00;77.50;;;;;;5061121;28;20223;-68
2021/04/09 10:39:15;;;;;;;7.63;5.70;;;15.20;78.10;;;;;;5052457;28;20816;-67
2021/04/09 10:41:45;;;;;;;6.50;5.40;;;15.30;78.20;;;;;;5057313;28;20720;-68
2021/04/09 10:44:15;;;;;;;6.10;5.45;;;15.40;77.80;;;;;;5059670;28;20232;-67
2021/04/09 10:46:44;;;;;;;9.07;5.38;;;15.70;77.90;;;;;;5063932;28;20283;-68
2021/04/09 10:49:13;;;;;;;4.70;4.28;;;16.00;76.60;;;;;;5061073;28;20230;-67
2021/04/09 10:51:41;;;;;;;5.05;4.55;;;16.00;74.80;;;;;;5066019;28;21016;-67
2021/04/09 10:54:09;;;;;;;10.98;4.25;;;15.80;74.00;;;;;;5067736;28;20824;-67
2021/04/09 10:56:36;;;;;;;4.45;4.03;;;15.60;74.80;;;;;;5065587;28;20205;-68
2021/04/09 10:59:07;;;;;;;6.28;4.20;;;15.50;74.60;;;;;;5057904;28;20225;-67
2021/04/09 11:01:34;;;;;;;5.63;4.40;;;15.70;74.70;;;;;;5060493;28;20201;-67
2021/04/09 11:04:03;;;;;;;4.63;3.60;;;15.80;74.90;;;;;;5060867;28;21080;-68
2021/04/09 11:06:29;;;;;;;4.90;4.40;;;15.90;74.50;;;;;;5066319;28;20191;-67
2021/04/09 11:09:00;;;;;;;4.90;3.92;;;15.90;74.80;;;;;;5066272;28;20742;-67
2021/04/09 11:11:35;;;;;;;7.75;4.15;;;15.90;73.80;;;;;;5061879;28;20194;-68
2021/04/09 11:14:04;;;;;;;6.45;4.22;;;16.00;74.20;;;;;;5060462;28;20426;-68
2021/04/09 11:16:46;;;;;;;9.10;4.85;;;16.20;73.50;;;;;;5058011;28;20202;-67
2021/04/09 11:19:22;;;;;;;4.88;4.40;;;16.10;73.00;;;;;;5059546;28;20648;-67
2021/04/09 11:21:50;;;;;;;7.47;4.53;;;15.80;73.40;;;;;;5065942;28;20190;-67
2021/04/09 11:24:22;;;;;;;8.00;4.28;;;15.80;73.90;;;;;;5057743;28;20227;-68
2021/04/09 11:26:49;;;;;;;6.75;4.30;;;15.80;73.60;;;;;;5062037;28;20190;-68
2021/04/09 11:29:21;;;;;;;4.65;3.92;;;15.80;74.20;;;;;;5061899;28;20229;-68
2021/04/09 11:31:48;;;;;;;6.18;4.47;;;15.80;74.40;;;;;;5066653;28;20201;-68
2021/04/09 11:34:16;;;;;;;7.78;4.65;;;15.90;74.20;;;;;;5061811;28;20777;-68
2021/04/09 11:36:46;;;;;;;5.80;4.03;;;15.90;74.90;;;;;;5065147;28;20914;-68
2021/04/09 11:39:14;;;;;;;7.25;3.53;;;16.00;74.80;;;;;;5061004;28;20230;-68
2021/04/09 11:41:44;;;;;;;5.55;4.18;;;15.70;75.20;;;;;;5063584;28;20194;-69
2021/04/09 11:44:28;;;;;;;6.30;4.05;;;15.90;75.70;;;;;;5061933;28;20245;-70
2021/04/09 11:47:12;;;;;;;7.10;4.32;;;16.00;74.70;;;;;;5062453;28;20198;-69
2021/04/09 11:49:39;;;;;;;5.85;4.72;;;15.90;75.60;;;;;;5059829;28;20719;-70
2021/04/09 11:52:07;;;;;;;7.43;4.47;;;15.80;74.90;;;;;;5064314;28;20206;-70
2021/04/09 11:54:35;;;;;;;10.32;4.22;;;15.70;75.00;;;;;;5062336;28;20225;-70
2021/04/09 11:57:02;;;;;;;6.47;4.57;;;15.80;75.30;;;;;;5058643;28;20408;-69
2021/04/09 11:59:34;;;;;;;4.82;3.90;;;15.80;75.00;;;;;;5060293;28;20692;-70
2021/04/09 12:02:17;;;;;;;5.53;4.03;;;15.90;76.10;;;;;;5060215;28;20199;-68
2021/04/09 12:04:45;;;;;;;7.07;4.70;;;16.00;75.10;;;;;;5058566;28;20604;-68
2021/04/09 12:07:14;;;;;;;8.50;4.88;;;15.80;75.10;;;;;;5060330;28;20553;-68
2021/04/09 12:09:41;;;;;;;5.68;4.55;;;15.80;76.20;;;;;;5085724;22;20225;-76
2021/04/09 12:12:10;;;;;;;5.40;4.05;;;15.70;78.00;;;;;;5077773;28;20349;-76
2021/04/09 12:14:39;;;;;;;5.43;4.57;;;16.00;77.30;;;;;;5069678;28;20218;-75
2021/04/09 12:17:07;;;;;;;9.38;4.85;;;16.10;76.10;;;;;;5060906;28;20233;-79
2021/04/09 12:19:34;;;;;;;8.07;4.75;;;16.10;76.00;;;;;;5065551;28;20221;-75
2021/04/09 12:22:00;;;;;;;4.80;4.40;;;16.20;76.50;;;;;;5077553;28;20208;-77
2021/04/09 12:24:28;;;;;;;5.70;4.28;;;16.10;75.50;;;;;;5079788;28;20233;-75
2021/04/09 12:26:55;;;;;;;6.90;4.25;;;16.30;76.60;;;;;;5076360;28;20198;-79
2021/04/09 12:29:21;;;;;;;5.88;4.85;;;16.40;76.00;;;;;;5075009;28;20224;-75
2021/04/09 12:31:48;;;;;;;4.85;3.75;;;16.00;76.10;;;;;;5077443;28;20831;-75
2021/04/09 12:34:18;;;;;;;5.30;4.20;;;16.00;77.20;;;;;;5074805;28;20217;-78
2021/04/09 12:36:45;;;;;;;6.55;4.53;;;16.20;77.20;;;;;;5073179;28;20745;-76
2021/04/09 12:39:12;;;;;;;4.50;4.03;;;16.30;76.40;;;;;;5071520;28;20201;-79
2021/04/09 12:41:39;;;;;;;5.25;3.83;;;16.40;76.20;;;;;;5074846;28;20443;-74
2021/04/09 12:44:08;;;;;;;5.50;3.85;;;16.40;76.50;;;;;;5071884;28;20225;-79
2021/04/09 12:46:35;;;;;;;6.95;4.20;;;16.40;77.00;;;;;;5079396;28;20194;-75
2021/04/09 12:49:02;;;;;;;7.43;4.30;;;16.30;76.10;;;;;;5075107;28;20660;-77
2021/04/09 12:51:29;;;;;;;5.85;3.90;;;16.40;76.80;;;;;;5072378;28;20217;-76
2021/04/09 12:53:55;;;;;;;4.47;3.90;;;16.50;77.00;;;;;;5077317;28;20197;-75
2021/04/09 12:56:23;;;;;;;4.47;3.97;;;16.60;76.70;;;;;;5074527;28;20223;-77
2021/04/09 12:58:50;;;;;;;6.95;4.10;;;16.60;76.20;;;;;;5076765;28;20656;-79
2021/04/09 13:01:17;;;;;;;4.85;4.03;;;16.50;75.40;;;;;;5077825;28;20611;-78
2021/04/09 13:03:43;;;;;;;7.28;4.63;;;16.50;76.00;;;;;;5076514;28;20699;-76